Weather at Caloundra Airport

Public forecast

Using degrees Celsius for public forecast. Weather courtesy of forecast.io.

Closest aviation weather report (METAR) to Caloundra Airport

Closest report is Sunshine Coast Airport, 12.7 nm (23.5 km) N.

2024/05/23 00:30 (retrieved 34 minutes ago)

YBSU 230030Z AUTO 19012KT 9999 // SCT048 22/14 Q1024 RF000/0000

Closest aviation forecast (TAF) to Caloundra Airport

Forecast is more than 6 hours old.

Closest forecast is Touho Airport, 758.5 nm (1,404.7 km) ENE.

2024/05/22 18:00 Ammendment (retrieved 7 hours ago)

TAF AMD NWWU 221833Z 2218/2318 CNL